Time,TemperatureF,DewpointF,PressureIn,WindDirection,WindDirectionDegrees,WindSpeedMPH,WindSpeedGustMPH,Humidity,HourlyPrecipIn,Conditions,Clouds,dailyrainin,SolarRadiationWatts/m^2,SoftwareType,DateUTC
2013-06-29 00:00:00,65.6,60.6,29.60,WNW,298,0.0,0.0,84,0.00,,,0.45,0,Wunderground v.1.15,2013-06-29 05:00:00,
2013-06-29 00:06:00,65.4,60.4,29.60,WNW,298,0.0,0.0,84,0.00,,,0.00,0,Wunderground v.1.15,2013-06-29 05:06:00,
2013-06-29 00:11:00,65.3,60.3,29.60,WNW,298,0.0,0.0,84,0.00,,,0.00,0,Wunderground v.1.15,2013-06-29 05:11:00,
2013-06-29 00:16:00,65.1,60.1,29.60,WNW,298,0.0,0.0,84,0.00,,,0.00,0,Wunderground v.1.15,2013-06-29 05:16:00,
2013-06-29 00:22:00,65.0,60.4,29.59,WNW,298,0.0,0.0,85,0.00,,,0.00,0,Wunderground v.1.15,2013-06-29 05:22:00,
2013-06-29 00:28:00,64.9,60.3,29.59,WNW,298,0.0,0.0,85,0.00,,,0.00,0,Wunderground v.1.15,2013-06-29 05:28:00,
2013-06-29 00:34:00,64.8,60.2,29.59,WNW,298,0.0,0.0,85,0.00,,,0.00,0,Wunderground v.1.15,2013-06-29 05:34:00,
2013-06-29 00:40:00,64.5,59.9,29.59,WNW,298,0.0,0.0,85,0.00,,,0.00,0,Wunderground v.1.15,2013-06-29 05:40:00,
2013-06-29 00:46:00,64.4,59.8,29.59,WNW,298,0.0,0.0,85,0.00,,,0.00,0,Wunderground v.1.15,2013-06-29 05:46:00,
2013-06-29 00:51:00,64.2,59.6,29.59,WNW,298,0.0,0.0,85,0.00,,,0.00,0,Wunderground v.1.15,2013-06-29 05:51:00,
2013-06-29 00:57:00,64.1,59.5,29.59,WNW,298,0.0,0.0,85,0.00,,,0.00,0,Wunderground v.1.15,2013-06-29 05:57:00,
2013-06-29 01:03:00,64.1,59.8,29.59,WNW,298,0.0,0.0,86,0.00,,,0.00,0,Wunderground v.1.15,2013-06-29 06:03:00,
2013-06-29 01:09:00,64.2,59.9,29.59,WNW,298,0.0,2.0,86,0.00,,,0.00,0,Wunderground v.1.15,2013-06-29 06:09:00,
2013-06-29 01:15:00,64.1,59.8,29.59,WNW,298,0.0,1.0,86,0.00,,,0.00,0,Wunderground v.1.15,2013-06-29 06:15:00,
2013-06-29 01:21:00,64.0,59.7,29.59,WNW,298,0.0,0.0,86,0.00,,,0.00,0,Wunderground v.1.15,2013-06-29 06:21:00,
2013-06-29 01:27:00,63.9,60.0,29.59,WNW,298,0.0,0.0,87,0.00,,,0.00,0,Wunderground v.1.15,2013-06-29 06:27:00,
2013-06-29 01:33:00,63.8,59.9,29.59,WNW,298,0.0,1.0,87,0.00,,,0.00,0,Wunderground v.1.15,2013-06-29 06:33:00,
2013-06-29 01:39:00,63.8,59.9,29.59,WNW,298,0.0,1.0,87,0.00,,,0.00,0,Wunderground v.1.15,2013-06-29 06:39:00,
2013-06-29 01:44:00,63.7,59.8,29.59,WNW,298,0.0,0.0,87,0.00,,,0.00,0,Wunderground v.1.15,2013-06-29 06:44:00,
2013-06-29 01:50:00,63.6,59.7,29.59,WNW,298,0.0,0.0,87,0.00,,,0.00,0,Wunderground v.1.15,2013-06-29 06:50:00,
2013-06-29 01:56:00,63.5,59.6,29.59,WNW,298,0.0,0.0,87,0.00,,,0.00,0,Wunderground v.1.15,2013-06-29 06:56:00,
2013-06-29 02:02:00,63.5,59.6,29.59,WNW,298,0.0,0.0,87,0.00,,,0.00,0,Wunderground v.1.15,2013-06-29 07:02:00,
2013-06-29 02:08:00,63.5,59.6,29.59,WNW,298,0.0,0.0,87,0.00,,,0.00,0,Wunderground v.1.15,2013-06-29 07:08:00,
2013-06-29 02:14:00,63.6,60.0,29.59,WNW,298,0.0,0.0,88,0.00,,,0.00,0,Wunderground v.1.15,2013-06-29 07:14:00,
2013-06-29 02:20:00,63.5,59.9,29.59,WNW,298,0.0,2.0,88,0.00,,,0.00,0,Wunderground v.1.15,2013-06-29 07:20:00,
2013-06-29 02:26:00,63.5,59.9,29.59,WNW,298,0.0,0.0,88,0.00,,,0.00,0,Wunderground v.1.15,2013-06-29 07:26:00,
2013-06-29 02:32:00,63.5,59.9,29.59,WNW,298,0.0,0.0,88,0.00,,,0.00,0,Wunderground v.1.15,2013-06-29 07:32:00,
2013-06-29 02:37:00,63.5,59.9,29.59,WNW,298,0.0,0.0,88,0.00,,,0.00,0,Wunderground v.1.15,2013-06-29 07:37:00,
2013-06-29 02:43:00,63.4,59.8,29.59,WNW,298,0.0,0.0,88,0.00,,,0.00,0,Wunderground v.1.15,2013-06-29 07:43:00,
2013-06-29 02:49:00,63.3,59.7,29.59,WNW,298,0.0,0.0,88,0.00,,,0.00,0,Wunderground v.1.15,2013-06-29 07:49:00,
2013-06-29 02:55:00,63.3,59.7,29.59,WNW,298,0.0,0.0,88,0.00,,,0.00,0,Wunderground v.1.15,2013-06-29 07:55:00,
2013-06-29 03:01:00,63.2,59.6,29.59,WNW,298,0.0,0.0,88,0.00,,,0.00,0,Wunderground v.1.15,2013-06-29 08:01:00,
2013-06-29 03:07:00,63.2,59.6,29.59,WNW,298,0.0,0.0,88,0.00,,,0.00,0,Wunderground v.1.15,2013-06-29 08:07:00,
2013-06-29 03:13:00,63.1,59.5,29.59,WNW,298,0.0,0.0,88,0.00,,,0.00,0,Wunderground v.1.15,2013-06-29 08:13:00,
2013-06-29 03:19:00,63.0,59.4,29.59,WNW,298,0.0,0.0,88,0.00,,,0.00,0,Wunderground v.1.15,2013-06-29 08:19:00,
2013-06-29 03:24:00,63.1,59.8,29.59,WNW,298,0.0,0.0,89,0.00,,,0.00,0,Wunderground v.1.15,2013-06-29 08:24:00,
2013-06-29 03:30:00,63.1,59.8,29.58,WNW,298,0.0,0.0,89,0.00,,,0.00,0,Wunderground v.1.15,2013-06-29 08:30:00,
2013-06-29 03:36:00,63.1,59.8,29.58,WNW,298,0.0,0.0,89,0.00,,,0.00,0,Wunderground v.1.15,2013-06-29 08:36:00,
2013-06-29 03:42:00,63.1,59.8,29.58,WNW,298,0.0,0.0,89,0.00,,,0.00,0,Wunderground v.1.15,2013-06-29 08:42:00,
2013-06-29 03:48:00,63.0,59.7,29.59,WNW,298,0.0,0.0,89,0.00,,,0.00,0,Wunderground v.1.15,2013-06-29 08:48:00,
2013-06-29 03:54:00,63.0,59.7,29.59,WNW,298,0.0,0.0,89,0.00,,,0.00,0,Wunderground v.1.15,2013-06-29 08:54:00,
2013-06-29 04:00:00,63.0,59.7,29.59,WNW,298,0.0,0.0,89,0.00,,,0.00,0,Wunderground v.1.15,2013-06-29 09:00:00,
2013-06-29 04:06:00,63.1,59.8,29.60,WNW,298,0.0,0.0,89,0.00,,,0.00,0,Wunderground v.1.15,2013-06-29 09:06:00,
2013-06-29 04:11:00,63.2,59.9,29.60,WNW,298,0.0,0.0,89,0.00,,,0.00,0,Wunderground v.1.15,2013-06-29 09:11:00,
2013-06-29 04:16:00,63.2,59.9,29.60,WNW,298,0.0,1.0,89,0.00,,,0.00,0,Wunderground v.1.15,2013-06-29 09:16:00,
2013-06-29 04:22:00,63.4,60.1,29.60,WNW,298,0.0,0.0,89,0.00,,,0.00,0,Wunderground v.1.15,2013-06-29 09:22:00,
2013-06-29 04:28:00,63.5,60.2,29.60,WNW,298,0.0,2.0,89,0.00,,,0.00,0,Wunderground v.1.15,2013-06-29 09:28:00,
2013-06-29 04:34:00,63.5,60.2,29.60,WNW,298,0.0,0.0,89,0.00,,,0.00,0,Wunderground v.1.15,2013-06-29 09:34:00,
2013-06-29 04:40:00,63.6,60.3,29.60,WNW,298,0.0,0.0,89,0.00,,,0.00,0,Wunderground v.1.15,2013-06-29 09:40:00,
2013-06-29 04:45:00,63.6,60.3,29.60,WNW,298,0.0,3.0,89,0.00,,,0.00,0,Wunderground v.1.15,2013-06-29 09:45:00,
2013-06-29 04:51:00,63.7,60.4,29.60,WNW,298,1.0,1.0,89,0.00,,,0.00,0,Wunderground v.1.15,2013-06-29 09:51:00,
2013-06-29 04:57:00,63.8,60.5,29.60,WNW,298,1.0,3.0,89,0.00,,,0.00,0,Wunderground v.1.15,2013-06-29 09:57:00,
2013-06-29 05:03:00,63.7,60.4,29.60,WNW,298,1.0,1.0,89,0.00,,,0.00,0,Wunderground v.1.15,2013-06-29 10:03:00,
2013-06-29 05:09:00,63.6,60.3,29.60,WNW,298,1.0,3.0,89,0.00,,,0.00,0,Wunderground v.1.15,2013-06-29 10:09:00,
2013-06-29 05:15:00,63.6,60.3,29.61,WNW,298,1.0,1.0,89,0.00,,,0.00,0,Wunderground v.1.15,2013-06-29 10:15:00,
2013-06-29 05:21:00,63.5,60.2,29.61,North,10,1.0,2.0,89,0.00,,,0.00,0,Wunderground v.1.15,2013-06-29 10:21:00,
2013-06-29 05:27:00,63.4,60.1,29.61,North,10,2.0,3.0,89,0.00,,,0.00,0,Wunderground v.1.15,2013-06-29 10:27:00,
2013-06-29 05:33:00,63.4,60.1,29.61,NW,321,3.0,5.0,89,0.00,,,0.00,0,Wunderground v.1.15,2013-06-29 10:33:00,
2013-06-29 05:39:00,63.5,59.9,29.61,North,9,3.0,7.0,88,0.00,,,0.00,5,Wunderground v.1.15,2013-06-29 10:39:00,
2013-06-29 05:44:00,63.5,59.9,29.61,North,9,2.0,3.0,88,0.00,,,0.00,7,Wunderground v.1.15,2013-06-29 10:44:00,
2013-06-29 05:50:00,63.7,60.1,29.61,North,9,1.0,1.0,88,0.00,,,0.00,5,Wunderground v.1.15,2013-06-29 10:50:00,
2013-06-29 05:56:00,63.8,60.2,29.61,North,9,1.0,3.0,88,0.00,,,0.00,7,Wunderground v.1.15,2013-06-29 10:56:00,
2013-06-29 06:02:00,63.8,60.2,29.61,North,9,1.0,1.0,88,0.00,,,0.00,9,Wunderground v.1.15,2013-06-29 11:02:00,
2013-06-29 06:08:00,63.9,60.0,29.61,North,9,1.0,4.0,87,0.00,,,0.00,11,Wunderground v.1.15,2013-06-29 11:08:00,
2013-06-29 06:14:00,64.0,60.1,29.61,North,9,1.0,1.0,87,0.00,,,0.00,18,Wunderground v.1.15,2013-06-29 11:14:00,
2013-06-29 06:20:00,64.1,60.2,29.61,North,9,1.0,3.0,87,0.00,,,0.00,16,Wunderground v.1.15,2013-06-29 11:20:00,
2013-06-29 06:25:00,64.2,60.2,29.61,North,9,1.0,1.0,87,0.00,,,0.00,19,Wunderground v.1.15,2013-06-29 11:25:00,
2013-06-29 06:31:00,64.3,60.3,29.61,North,360,2.0,4.0,87,0.00,,,0.00,16,Wunderground v.1.15,2013-06-29 11:31:00,
2013-06-29 06:37:00,64.3,60.0,29.61,North,355,3.0,5.0,86,0.00,,,0.00,21,Wunderground v.1.15,2013-06-29 11:37:00,
2013-06-29 06:43:00,64.4,60.1,29.61,NNE,28,2.0,2.0,86,0.00,,,0.00,21,Wunderground v.1.15,2013-06-29 11:43:00,
2013-06-29 06:49:00,64.5,60.2,29.61,NNE,20,2.0,5.0,86,0.00,,,0.00,37,Wunderground v.1.15,2013-06-29 11:49:00,
2013-06-29 06:55:00,64.5,60.2,29.61,North,5,2.0,4.0,86,0.00,,,0.00,33,Wunderground v.1.15,2013-06-29 11:55:00,
2013-06-29 07:01:00,64.6,60.3,29.61,North,355,2.0,5.0,86,0.00,,,0.00,32,Wunderground v.1.15,2013-06-29 12:01:00,
2013-06-29 07:06:00,64.7,60.4,29.61,ENE,65,3.0,5.0,86,0.00,,,0.00,44,Wunderground v.1.15,2013-06-29 12:06:00,
2013-06-29 07:13:00,64.7,60.4,29.61,NNW,344,3.0,3.0,86,0.00,,,0.00,42,Wunderground v.1.15,2013-06-29 12:13:00,
2013-06-29 07:18:00,64.8,60.5,29.61,NNE,32,2.0,6.0,86,0.00,,,0.00,30,Wunderground v.1.15,2013-06-29 12:18:00,
2013-06-29 07:24:00,64.8,60.2,29.61,North,11,3.0,6.0,85,0.00,,,0.00,25,Wunderground v.1.15,2013-06-29 12:24:00,
2013-06-29 07:30:00,64.8,60.2,29.62,North,5,3.0,3.0,85,0.00,,,0.00,30,Wunderground v.1.15,2013-06-29 12:30:00,
2013-06-29 07:36:00,64.9,60.3,29.61,NNE,26,3.0,8.0,85,0.00,,,0.00,47,Wunderground v.1.15,2013-06-29 12:36:00,
2013-06-29 07:42:00,64.8,60.2,29.61,NE,35,3.0,3.0,85,0.00,,,0.00,42,Wunderground v.1.15,2013-06-29 12:42:00,
2013-06-29 07:48:00,64.9,60.3,29.62,NNE,12,2.0,3.0,85,0.00,,,0.00,47,Wunderground v.1.15,2013-06-29 12:48:00,
2013-06-29 07:54:00,64.9,60.6,29.62,North,355,3.0,3.0,86,0.00,,,0.00,42,Wunderground v.1.15,2013-06-29 12:54:00,
2013-06-29 08:00:00,64.9,60.6,29.62,NNE,12,2.0,4.0,86,0.00,,,0.00,46,Wunderground v.1.15,2013-06-29 13:00:00,
2013-06-29 08:05:00,65.0,60.7,29.62,NNW,344,3.0,7.0,86,0.00,,,0.00,62,Wunderground v.1.15,2013-06-29 13:05:00,
2013-06-29 08:11:00,65.0,60.7,29.62,North,5,2.0,2.0,86,0.00,,,0.00,88,Wunderground v.1.15,2013-06-29 13:11:00,
2013-06-29 08:16:00,65.2,60.9,29.62,North,355,1.0,4.0,86,0.00,,,0.00,76,Wunderground v.1.15,2013-06-29 13:16:00,
2013-06-29 08:22:00,65.3,60.7,29.62,North,10,3.0,6.0,85,0.00,,,0.00,69,Wunderground v.1.15,2013-06-29 13:22:00,
2013-06-29 08:28:00,65.4,60.8,29.61,North,10,5.0,6.0,85,0.00,,,0.00,100,Wunderground v.1.15,2013-06-29 13:28:00,
2013-06-29 08:34:00,65.5,60.9,29.62,North,5,4.0,7.0,85,0.00,,,0.00,120,Wunderground v.1.15,2013-06-29 13:34:00,
2013-06-29 08:40:00,65.7,61.1,29.62,NNE,30,3.0,7.0,85,0.00,,,0.00,111,Wunderground v.1.15,2013-06-29 13:40:00,
2013-06-29 08:46:00,65.9,61.3,29.62,NNE,26,2.0,7.0,85,0.00,,,0.00,91,Wunderground v.1.15,2013-06-29 13:46:00,
2013-06-29 08:51:00,66.0,61.0,29.62,NNE,28,2.0,4.0,84,0.00,,,0.00,95,Wunderground v.1.15,2013-06-29 13:51:00,
2013-06-29 08:57:00,66.1,61.1,29.62,NNE,28,2.0,4.0,84,0.00,,,0.00,76,Wunderground v.1.15,2013-06-29 13:57:00,
2013-06-29 09:03:00,66.1,61.1,29.62,NNW,348,3.0,4.0,84,0.00,,,0.00,86,Wunderground v.1.15,2013-06-29 14:03:00,
2013-06-29 09:09:00,66.2,61.2,29.62,NNE,28,3.0,4.0,84,0.00,,,0.00,100,Wunderground v.1.15,2013-06-29 14:09:00,
2013-06-29 09:15:00,66.4,61.4,29.62,North,355,1.0,3.0,84,0.00,,,0.00,93,Wunderground v.1.15,2013-06-29 14:15:00,
2013-06-29 09:21:00,66.4,61.4,29.62,NNE,18,2.0,2.0,84,0.00,,,0.00,81,Wunderground v.1.15,2013-06-29 14:21:00,
2013-06-29 09:27:00,66.4,61.4,29.62,NNE,24,1.0,3.0,84,0.00,,,0.00,76,Wunderground v.1.15,2013-06-29 14:27:00,
2013-06-29 09:33:00,66.4,61.4,29.62,NNE,16,2.0,5.0,84,0.00,,,0.00,65,Wunderground v.1.15,2013-06-29 14:33:00,
2013-06-29 09:39:00,66.5,61.5,29.62,NNE,24,3.0,6.0,84,0.00,,,0.00,63,Wunderground v.1.15,2013-06-29 14:39:00,
2013-06-29 09:45:00,66.4,61.1,29.62,NNW,346,3.0,6.0,83,0.00,,,0.00,56,Wunderground v.1.15,2013-06-29 14:45:00,
2013-06-29 09:50:00,66.5,61.5,29.62,North,5,2.0,2.0,84,0.00,,,0.00,65,Wunderground v.1.15,2013-06-29 14:50:00,
2013-06-29 09:56:00,66.5,61.2,29.62,NNW,340,3.0,5.0,83,0.00,,,0.00,70,Wunderground v.1.15,2013-06-29 14:56:00,
2013-06-29 10:02:00,66.5,61.2,29.62,NE,55,3.0,3.0,83,0.00,,,0.00,49,Wunderground v.1.15,2013-06-29 15:02:00,
2013-06-29 10:08:00,66.4,61.1,29.62,North,360,2.0,4.0,83,0.00,,,0.00,46,Wunderground v.1.15,2013-06-29 15:08:00,
2013-06-29 10:14:00,66.4,61.4,29.62,NNW,346,2.0,5.0,84,0.00,,,0.00,54,Wunderground v.1.15,2013-06-29 15:14:00,
2013-06-29 10:20:00,66.4,61.4,29.62,NNE,24,2.0,5.0,84,0.00,,,0.00,69,Wunderground v.1.15,2013-06-29 15:20:00,
2013-06-29 10:26:00,66.4,61.4,29.62,NNE,19,2.0,3.0,84,0.00,,,0.00,67,Wunderground v.1.15,2013-06-29 15:26:00,
2013-06-29 10:31:00,66.5,61.5,29.62,NNE,19,1.0,5.0,84,0.00,,,0.00,79,Wunderground v.1.15,2013-06-29 15:31:00,
2013-06-29 10:37:00,66.6,61.6,29.62,North,350,1.0,5.0,84,0.00,,,0.00,104,Wunderground v.1.15,2013-06-29 15:37:00,
2013-06-29 10:43:00,66.8,61.8,29.62,North,5,1.0,1.0,84,0.00,,,0.00,98,Wunderground v.1.15,2013-06-29 15:43:00,
2013-06-29 10:49:00,66.9,61.9,29.62,North,5,1.0,2.0,84,0.00,,,0.00,91,Wunderground v.1.15,2013-06-29 15:49:00,
2013-06-29 10:55:00,67.0,62.0,29.62,NNE,23,1.0,4.0,84,0.00,,,0.00,70,Wunderground v.1.15,2013-06-29 15:55:00,
2013-06-29 11:01:00,67.0,61.7,29.62,NNE,16,2.0,5.0,83,0.00,,,0.00,88,Wunderground v.1.15,2013-06-29 16:01:00,
2013-06-29 11:07:00,66.9,61.6,29.63,NE,36,2.0,5.0,83,0.00,,,0.00,90,Wunderground v.1.15,2013-06-29 16:07:00,
2013-06-29 11:13:00,67.0,61.7,29.63,NE,36,1.0,3.0,83,0.00,,,0.00,165,Wunderground v.1.15,2013-06-29 16:13:00,
2013-06-29 11:19:00,67.3,62.0,29.62,NNE,32,1.0,6.0,83,0.00,,,0.00,155,Wunderground v.1.15,2013-06-29 16:19:00,
2013-06-29 11:25:00,67.4,61.7,29.63,NE,44,2.0,4.0,82,0.00,,,0.00,88,Wunderground v.1.15,2013-06-29 16:25:00,
2013-06-29 11:30:00,67.5,61.8,29.63,NE,36,1.0,1.0,82,0.00,,,0.00,54,Wunderground v.1.15,2013-06-29 16:30:00,
2013-06-29 11:36:00,67.3,61.3,29.63,East,90,1.0,5.0,81,0.00,,,0.00,67,Wunderground v.1.15,2013-06-29 16:36:00,
2013-06-29 11:42:00,67.1,61.1,29.63,NE,38,2.0,6.0,81,0.00,,,0.00,62,Wunderground v.1.15,2013-06-29 16:42:00,
2013-06-29 11:48:00,67.0,61.3,29.63,ENE,58,2.0,6.0,82,0.00,,,0.00,56,Wunderground v.1.15,2013-06-29 16:48:00,
2013-06-29 11:54:00,66.9,61.2,29.63,NNE,27,3.0,3.0,82,0.00,,,0.00,93,Wunderground v.1.15,2013-06-29 16:54:00,
2013-06-29 12:00:00,66.9,61.6,29.63,North,360,2.0,6.0,83,0.00,,,0.00,98,Wunderground v.1.15,2013-06-29 17:00:00,
2013-06-29 12:06:00,66.9,61.6,29.63,NNE,32,3.0,9.0,83,0.00,,,0.00,118,Wunderground v.1.15,2013-06-29 17:06:00,
2013-06-29 12:11:00,67.0,61.7,29.63,NE,54,4.0,4.0,83,0.00,,,0.00,169,Wunderground v.1.15,2013-06-29 17:11:00,
2013-06-29 12:16:00,67.0,61.7,29.64,NE,47,4.0,7.0,83,0.00,,,0.00,188,Wunderground v.1.15,2013-06-29 17:16:00,
2013-06-29 12:22:00,67.2,61.5,29.64,ENE,68,5.0,7.0,82,0.00,,,0.00,216,Wunderground v.1.15,2013-06-29 17:22:00,
2013-06-29 12:28:00,67.5,61.8,29.64,NE,52,4.0,7.0,82,0.00,,,0.00,199,Wunderground v.1.15,2013-06-29 17:28:00,
2013-06-29 12:34:00,67.6,61.6,29.64,NE,44,4.0,9.0,81,0.00,,,0.00,125,Wunderground v.1.15,2013-06-29 17:34:00,
2013-06-29 12:40:00,67.5,61.5,29.64,ENE,73,6.0,9.0,81,0.00,,,0.00,88,Wunderground v.1.15,2013-06-29 17:40:00,
2013-06-29 12:46:00,67.6,61.6,29.64,East,82,4.0,6.0,81,0.00,,,0.00,213,Wunderground v.1.15,2013-06-29 17:46:00,
2013-06-29 12:52:00,67.7,61.3,29.64,NE,44,3.0,3.0,80,0.00,,,0.00,171,Wunderground v.1.15,2013-06-29 17:52:00,
2013-06-29 12:57:00,67.9,61.5,29.64,ENE,77,3.0,6.0,80,0.00,,,0.00,211,Wunderground v.1.15,2013-06-29 17:57:00,
2013-06-29 13:03:00,68.1,62.0,29.64,North,11,2.0,3.0,81,0.00,,,0.00,139,Wunderground v.1.15,2013-06-29 18:03:00,
2013-06-29 13:09:00,68.2,61.8,29.65,NE,40,4.0,10.0,80,0.00,,,0.00,353,Wunderground v.1.15,2013-06-29 18:09:00,
2013-06-29 13:15:00,68.7,62.3,29.65,ENE,61,5.0,12.0,80,0.00,,,0.00,547,Wunderground v.1.15,2013-06-29 18:15:00,
2013-06-29 13:21:00,69.1,62.3,29.65,NE,38,6.0,7.0,79,0.00,,,0.00,348,Wunderground v.1.15,2013-06-29 18:21:00,
2013-06-29 13:27:00,69.0,61.9,29.65,NNE,32,6.0,9.0,78,0.00,,,0.00,195,Wunderground v.1.15,2013-06-29 18:27:00,
2013-06-29 13:33:00,68.5,61.7,29.65,ENE,59,5.0,5.0,79,0.00,,,0.00,274,Wunderground v.1.15,2013-06-29 18:33:00,
2013-06-29 13:39:00,68.5,62.1,29.65,North,11,3.0,5.0,80,0.00,,,0.00,267,Wunderground v.1.15,2013-06-29 18:39:00,
2013-06-29 13:44:00,68.6,62.2,29.65,NNE,25,2.0,8.0,80,0.00,,,0.00,269,Wunderground v.1.15,2013-06-29 18:44:00,
2013-06-29 13:50:00,68.7,61.9,29.65,ENE,71,4.0,7.0,79,0.00,,,0.00,185,Wunderground v.1.15,2013-06-29 18:50:00,
2013-06-29 13:56:00,68.4,61.6,29.66,NNE,17,6.0,13.0,79,0.00,,,0.00,236,Wunderground v.1.15,2013-06-29 18:56:00,
2013-06-29 14:02:00,67.9,61.1,29.66,NE,55,6.0,11.0,79,0.00,,,0.00,202,Wunderground v.1.15,2013-06-29 19:02:00,
2013-06-29 14:08:00,67.7,61.0,29.66,NNE,32,4.0,11.0,79,0.00,,,0.00,148,Wunderground v.1.15,2013-06-29 19:08:00,
2013-06-29 14:14:00,67.5,60.8,29.66,NNW,333,6.0,6.0,79,0.00,,,0.00,91,Wunderground v.1.15,2013-06-29 19:14:00,
2013-06-29 14:20:00,67.0,60.6,29.67,NNE,22,6.0,9.0,80,0.00,,,0.00,56,Wunderground v.1.15,2013-06-29 19:20:00,
2013-06-29 14:26:00,66.6,60.6,29.67,North,360,6.0,11.0,81,0.00,,,0.00,65,Wunderground v.1.15,2013-06-29 19:26:00,
2013-06-29 14:32:00,66.1,60.1,29.67,North,355,7.0,7.0,81,0.00,,,0.00,79,Wunderground v.1.15,2013-06-29 19:32:00,
2013-06-29 14:37:00,66.0,60.3,29.67,North,351,6.0,11.0,82,0.00,,,0.00,158,Wunderground v.1.15,2013-06-29 19:37:00,
2013-06-29 14:43:00,66.1,60.4,29.67,NE,44,5.0,8.0,82,0.00,,,0.00,174,Wunderground v.1.15,2013-06-29 19:43:00,
2013-06-29 14:49:00,66.3,60.3,29.67,NW,325,5.0,8.0,81,0.00,,,0.00,109,Wunderground v.1.15,2013-06-29 19:49:00,
2013-06-29 14:55:00,66.4,60.4,29.67,ENE,59,5.0,9.0,81,0.00,,,0.00,160,Wunderground v.1.15,2013-06-29 19:55:00,
2013-06-29 15:01:00,66.7,60.7,29.67,North,5,5.0,5.0,81,0.00,,,0.00,276,Wunderground v.1.15,2013-06-29 20:01:00,
2013-06-29 15:07:00,67.2,60.8,29.67,ENE,77,6.0,12.0,80,0.00,,,0.00,234,Wunderground v.1.15,2013-06-29 20:07:00,
2013-06-29 15:12:00,67.6,60.9,29.67,NNE,30,6.0,12.0,79,0.00,,,0.00,244,Wunderground v.1.15,2013-06-29 20:12:00,
2013-06-29 15:18:00,68.0,60.5,29.67,NE,42,7.0,12.0,77,0.00,,,0.00,294,Wunderground v.1.15,2013-06-29 20:18:00,
2013-06-29 15:23:00,68.3,60.4,29.67,North,11,6.0,8.0,76,0.00,,,0.00,125,Wunderground v.1.15,2013-06-29 20:23:00,
2013-06-29 15:29:00,68.4,60.2,29.68,North,5,6.0,12.0,75,0.00,,,0.00,213,Wunderground v.1.15,2013-06-29 20:29:00,
2013-06-29 15:35:00,68.6,60.0,29.67,NE,36,7.0,13.0,74,0.00,,,0.00,178,Wunderground v.1.15,2013-06-29 20:35:00,
2013-06-29 15:41:00,68.7,59.7,29.68,NNE,18,7.0,11.0,73,0.00,,,0.00,397,Wunderground v.1.15,2013-06-29 20:41:00,
2013-06-29 15:47:00,69.0,60.0,29.68,North,355,6.0,11.0,73,0.00,,,0.00,250,Wunderground v.1.15,2013-06-29 20:47:00,
2013-06-29 15:53:00,69.2,59.0,29.68,NNE,24,6.0,9.0,70,0.00,,,0.00,297,Wunderground v.1.15,2013-06-29 20:53:00,
2013-06-29 15:58:00,69.6,59.8,29.68,North,11,7.0,9.0,71,0.00,,,0.00,522,Wunderground v.1.15,2013-06-29 20:58:00,
2013-06-29 16:04:00,70.1,60.3,29.68,North,355,5.0,10.0,71,0.00,,,0.00,504,Wunderground v.1.15,2013-06-29 21:04:00,
2013-06-29 16:09:00,70.5,59.8,29.68,NE,47,4.0,11.0,69,0.00,,,0.00,515,Wunderground v.1.15,2013-06-29 21:09:00,
2013-06-29 16:15:00,70.7,59.2,29.68,North,355,4.0,8.0,67,0.00,,,0.00,392,Wunderground v.1.15,2013-06-29 21:15:00,
2013-06-29 16:21:00,70.6,59.1,29.68,North,360,5.0,5.0,67,0.00,,,0.00,267,Wunderground v.1.15,2013-06-29 21:21:00,
2013-06-29 16:27:00,70.5,59.0,29.68,NNE,23,5.0,10.0,67,0.00,,,0.00,155,Wunderground v.1.15,2013-06-29 21:27:00,
2013-06-29 16:33:00,70.3,58.8,29.68,North,355,5.0,5.0,67,0.00,,,0.00,113,Wunderground v.1.15,2013-06-29 21:33:00,
2013-06-29 16:39:00,70.1,58.6,29.68,East,91,4.0,7.0,67,0.00,,,0.00,111,Wunderground v.1.15,2013-06-29 21:39:00,
2013-06-29 16:45:00,70.2,58.7,29.68,North,355,4.0,10.0,67,0.00,,,0.00,104,Wunderground v.1.15,2013-06-29 21:45:00,
2013-06-29 16:51:00,70.2,57.9,29.68,North,350,6.0,9.0,65,0.00,,,0.00,98,Wunderground v.1.15,2013-06-29 21:51:00,
2013-06-29 16:57:00,70.3,57.5,29.68,North,11,8.0,15.0,64,0.00,,,0.00,90,Wunderground v.1.15,2013-06-29 21:57:00,
2013-06-29 17:03:00,70.3,57.5,29.68,NNE,13,7.0,10.0,64,0.00,,,0.00,83,Wunderground v.1.15,2013-06-29 22:03:00,
2013-06-29 17:08:00,70.2,57.0,29.68,North,5,7.0,11.0,63,0.00,,,0.00,77,Wunderground v.1.15,2013-06-29 22:08:00,
2013-06-29 17:14:00,70.1,56.9,29.68,NNE,25,8.0,12.0,63,0.00,,,0.00,97,Wunderground v.1.15,2013-06-29 22:14:00,
2013-06-29 17:20:00,70.0,57.3,29.68,NE,40,6.0,6.0,64,0.00,,,0.00,167,Wunderground v.1.15,2013-06-29 22:20:00,
2013-06-29 17:26:00,70.0,57.7,29.68,NNE,18,5.0,7.0,65,0.00,,,0.00,79,Wunderground v.1.15,2013-06-29 22:26:00,
2013-06-29 17:32:00,69.8,57.5,29.68,NNE,22,5.0,7.0,65,0.00,,,0.00,65,Wunderground v.1.15,2013-06-29 22:32:00,
2013-06-29 17:38:00,69.4,57.5,29.68,NNE,18,6.0,9.0,66,0.00,,,0.00,58,Wunderground v.1.15,2013-06-29 22:38:00,
2013-06-29 17:44:00,69.1,57.7,29.68,NW,320,6.0,9.0,67,0.00,,,0.00,74,Wunderground v.1.15,2013-06-29 22:44:00,
2013-06-29 17:50:00,69.1,58.1,29.69,North,350,7.0,9.0,68,0.00,,,0.00,67,Wunderground v.1.15,2013-06-29 22:50:00,
2013-06-29 17:56:00,69.2,57.4,29.70,NNE,21,7.0,12.0,66,0.00,,,0.00,62,Wunderground v.1.15,2013-06-29 22:56:00,
2013-06-29 18:02:00,68.8,56.6,29.70,NNE,30,7.0,9.0,65,0.00,,,0.00,60,Wunderground v.1.15,2013-06-29 23:02:00,
2013-06-29 18:07:00,68.4,56.6,29.70,ENE,68,7.0,12.0,66,0.00,,,0.00,63,Wunderground v.1.15,2013-06-29 23:07:00,
2013-06-29 18:13:00,68.3,56.9,29.70,NE,38,6.0,8.0,67,0.00,,,0.00,113,Wunderground v.1.15,2013-06-29 23:13:00,
2013-06-29 18:19:00,68.4,57.0,29.70,North,11,5.0,10.0,67,0.00,,,0.00,91,Wunderground v.1.15,2013-06-29 23:19:00,
2013-06-29 18:25:00,68.3,57.3,29.70,NNE,31,5.0,10.0,68,0.00,,,0.00,67,Wunderground v.1.15,2013-06-29 23:25:00,
2013-06-29 18:31:00,68.0,57.0,29.70,NNE,18,6.0,11.0,68,0.00,,,0.00,76,Wunderground v.1.15,2013-06-29 23:31:00,
2013-06-29 18:36:00,67.7,56.3,29.71,NNE,22,7.0,11.0,67,0.00,,,0.00,54,Wunderground v.1.15,2013-06-29 23:36:00,
2013-06-29 18:42:00,67.6,55.8,29.71,NE,47,6.0,11.0,66,0.00,,,0.00,74,Wunderground v.1.15,2013-06-29 23:42:00,
2013-06-29 18:48:00,67.2,54.6,29.71,NE,43,7.0,12.0,64,0.00,,,0.00,54,Wunderground v.1.15,2013-06-29 23:48:00,
2013-06-29 18:53:00,66.8,54.2,29.72,North,9,7.0,9.0,64,0.00,,,0.00,54,Wunderground v.1.15,2013-06-29 23:53:00,
2013-06-29 18:59:00,66.5,54.4,29.72,ENE,57,5.0,9.0,65,0.00,,,0.00,35,Wunderground v.1.15,2013-06-29 23:59:00,
2013-06-29 19:05:00,66.2,54.1,29.72,NE,55,5.0,15.0,65,0.00,,,0.00,47,Wunderground v.1.15,2013-06-30 00:05:00,
2013-06-29 19:11:00,66.2,54.5,29.73,ENE,58,6.0,10.0,66,0.00,,,0.00,32,Wunderground v.1.15,2013-06-30 00:11:00,
2013-06-29 19:16:00,66.1,54.0,29.72,NNE,23,5.0,11.0,65,0.00,,,0.00,23,Wunderground v.1.15,2013-06-30 00:16:00,
2013-06-29 19:22:00,66.1,54.4,29.73,NNE,22,5.0,11.0,66,0.00,,,0.00,14,Wunderground v.1.15,2013-06-30 00:22:00,
2013-06-29 19:28:00,66.0,53.9,29.73,North,5,6.0,11.0,65,0.00,,,0.00,16,Wunderground v.1.15,2013-06-30 00:28:00,
2013-06-29 19:33:00,65.9,53.8,29.73,NNE,13,5.0,7.0,65,0.00,,,0.00,28,Wunderground v.1.15,2013-06-30 00:33:00,
2013-06-29 19:39:00,65.9,53.8,29.74,NE,39,4.0,10.0,65,0.00,,,0.00,32,Wunderground v.1.15,2013-06-30 00:39:00,
2013-06-29 19:45:00,65.8,53.7,29.74,NNE,31,4.0,16.0,65,0.00,,,0.00,23,Wunderground v.1.15,2013-06-30 00:45:00,
2013-06-29 19:51:00,65.8,53.3,29.74,NE,50,7.0,7.0,64,0.00,,,0.00,18,Wunderground v.1.15,2013-06-30 00:51:00,
2013-06-29 19:57:00,65.7,53.2,29.74,NNW,342,6.0,7.0,64,0.00,,,0.00,12,Wunderground v.1.15,2013-06-30 00:57:00,
2013-06-29 20:03:00,65.7,52.8,29.74,North,5,5.0,13.0,63,0.00,,,0.00,11,Wunderground v.1.15,2013-06-30 01:03:00,
2013-06-29 20:09:00,65.6,52.7,29.74,NE,36,5.0,13.0,63,0.00,,,0.00,9,Wunderground v.1.15,2013-06-30 01:09:00,
2013-06-29 20:15:00,65.6,52.7,29.73,NNE,13,6.0,8.0,63,0.00,,,0.00,5,Wunderground v.1.15,2013-06-30 01:15:00,
2013-06-29 20:21:00,65.6,52.7,29.73,NNE,32,6.0,7.0,63,0.00,,,0.00,0,Wunderground v.1.15,2013-06-30 01:21:00,
2013-06-29 20:27:00,65.6,52.7,29.73,NNE,17,6.0,14.0,63,0.00,,,0.00,0,Wunderground v.1.15,2013-06-30 01:27:00,
2013-06-29 20:33:00,65.6,53.1,29.73,North,355,6.0,11.0,64,0.00,,,0.00,0,Wunderground v.1.15,2013-06-30 01:33:00,
2013-06-29 20:38:00,65.6,53.1,29.73,NNE,31,7.0,11.0,64,0.00,,,0.00,0,Wunderground v.1.15,2013-06-30 01:38:00,
2013-06-29 20:44:00,65.5,53.4,29.74,NNE,30,6.0,6.0,65,0.00,,,0.00,0,Wunderground v.1.15,2013-06-30 01:44:00,
2013-06-29 20:50:00,65.5,53.8,29.74,NNE,24,4.0,7.0,66,0.00,,,0.00,0,Wunderground v.1.15,2013-06-30 01:50:00,
2013-06-29 20:56:00,65.4,53.7,29.74,NNE,14,4.0,13.0,66,0.00,,,0.00,0,Wunderground v.1.15,2013-06-30 01:56:00,
2013-06-29 21:02:00,65.5,53.8,29.74,North,360,5.0,8.0,66,0.00,,,0.00,0,Wunderground v.1.15,2013-06-30 02:02:00,
2013-06-29 21:08:00,65.4,54.2,29.75,NNE,25,6.0,11.0,67,0.00,,,0.00,0,Wunderground v.1.15,2013-06-30 02:08:00,
2013-06-29 21:14:00,65.2,54.4,29.75,NNE,19,5.0,6.0,68,0.00,,,0.00,0,Wunderground v.1.15,2013-06-30 02:14:00,
2013-06-29 21:20:00,65.0,54.2,29.75,NNE,21,6.0,11.0,68,0.00,,,0.00,0,Wunderground v.1.15,2013-06-30 02:20:00,
2013-06-29 21:26:00,64.9,54.5,29.75,North,11,5.0,9.0,69,0.00,,,0.00,0,Wunderground v.1.15,2013-06-30 02:26:00,
2013-06-29 21:31:00,64.7,54.3,29.75,NNE,17,4.0,9.0,69,0.00,,,0.00,0,Wunderground v.1.15,2013-06-30 02:31:00,
2013-06-29 21:37:00,64.7,54.7,29.75,NE,34,5.0,9.0,70,0.00,,,0.00,0,Wunderground v.1.15,2013-06-30 02:37:00,
2013-06-29 21:43:00,64.6,54.6,29.76,NNE,15,4.0,5.0,70,0.00,,,0.00,0,Wunderground v.1.15,2013-06-30 02:43:00,
2013-06-29 21:49:00,64.5,54.5,29.76,North,11,5.0,8.0,70,0.00,,,0.00,0,Wunderground v.1.15,2013-06-30 02:49:00,
2013-06-29 21:55:00,64.4,54.4,29.76,NNE,29,5.0,7.0,70,0.00,,,0.00,0,Wunderground v.1.15,2013-06-30 02:55:00,
2013-06-29 22:01:00,64.4,54.4,29.76,North,355,4.0,4.0,70,0.00,,,0.00,0,Wunderground v.1.15,2013-06-30 03:01:00,
2013-06-29 22:07:00,64.3,54.7,29.76,NNE,17,4.0,7.0,71,0.00,,,0.00,0,Wunderground v.1.15,2013-06-30 03:07:00,
2013-06-29 22:13:00,64.3,54.7,29.76,NNW,332,5.0,5.0,71,0.00,,,0.00,0,Wunderground v.1.15,2013-06-30 03:13:00,
2013-06-29 22:18:00,64.3,54.7,29.76,NNE,18,5.0,7.0,71,0.00,,,0.00,0,Wunderground v.1.15,2013-06-30 03:18:00,
2013-06-29 22:24:00,64.3,54.7,29.76,NNE,32,3.0,4.0,71,0.00,,,0.00,0,Wunderground v.1.15,2013-06-30 03:24:00,
2013-06-29 22:30:00,64.1,54.5,29.76,NNE,31,3.0,3.0,71,0.00,,,0.00,0,Wunderground v.1.15,2013-06-30 03:30:00,
2013-06-29 22:36:00,64.0,54.4,29.76,NNE,29,5.0,9.0,71,0.00,,,0.00,0,Wunderground v.1.15,2013-06-30 03:36:00,
2013-06-29 22:42:00,64.0,54.4,29.76,NNE,30,4.0,5.0,71,0.00,,,0.00,0,Wunderground v.1.15,2013-06-30 03:42:00,
2013-06-29 22:48:00,64.0,54.8,29.76,NNE,14,3.0,5.0,72,0.00,,,0.00,0,Wunderground v.1.15,2013-06-30 03:48:00,
2013-06-29 22:54:00,63.9,54.7,29.76,North,5,3.0,5.0,72,0.00,,,0.00,0,Wunderground v.1.15,2013-06-30 03:54:00,
2013-06-29 22:59:00,63.9,54.7,29.76,NE,46,2.0,5.0,72,0.00,,,0.00,0,Wunderground v.1.15,2013-06-30 03:59:00,
2013-06-29 23:01:00,63.9,55.1,29.76,North,5,3.0,4.0,73,0.00,,,0.00,0,Wunderground v.1.15,2013-06-30 04:01:00,
2013-06-29 23:02:00,63.9,55.1,29.76,NNE,17,3.0,4.0,73,0.00,,,0.00,0,Wunderground v.1.15,2013-06-30 04:02:00,
2013-06-29 23:03:00,63.9,55.1,29.76,North,5,3.0,5.0,73,0.00,,,0.00,0,Wunderground v.1.15,2013-06-30 04:03:00,
2013-06-29 23:09:00,64.0,55.2,29.76,NNE,29,4.0,8.0,73,0.00,,,0.00,0,Wunderground v.1.15,2013-06-30 04:09:00,
2013-06-29 23:11:00,64.0,55.2,29.76,NNE,15,4.0,5.0,73,0.00,,,0.00,0,Wunderground v.1.15,2013-06-30 04:11:00,
2013-06-29 23:17:00,64.1,55.3,29.76,NNW,337,5.0,10.0,73,0.00,,,0.00,0,Wunderground v.1.15,2013-06-30 04:17:00,
2013-06-29 23:23:00,64.1,55.3,29.76,NE,34,4.0,8.0,73,0.00,,,0.00,0,Wunderground v.1.15,2013-06-30 04:23:00,
2013-06-29 23:29:00,64.2,55.4,29.76,NNE,13,4.0,8.0,73,0.00,,,0.00,0,Wunderground v.1.15,2013-06-30 04:29:00,
2013-06-29 23:35:00,64.1,55.3,29.76,North,355,3.0,8.0,73,0.00,,,0.00,0,Wunderground v.1.15,2013-06-30 04:35:00,
2013-06-29 23:41:00,64.1,55.3,29.76,North,9,3.0,3.0,73,0.00,,,0.00,0,Wunderground v.1.15,2013-06-30 04:41:00,
2013-06-29 23:47:00,64.0,55.2,29.76,NNE,24,2.0,4.0,73,0.00,,,0.00,0,Wunderground v.1.15,2013-06-30 04:47:00,
2013-06-29 23:53:00,63.8,55.4,29.76,NNE,15,3.0,4.0,74,0.00,,,0.00,0,Wunderground v.1.15,2013-06-30 04:53:00,
2013-06-29 23:58:00,63.8,55.4,29.76,NNE,12,4.0,9.0,74,0.00,,,0.00,0,Wunderground v.1.15,2013-06-30 04:58:00,